Baroy — LCHG — position and weather

sailwx.info

Track history (hours):
 
Tides and Currents Weather Stations Pressure Air Temp Water Temp Dewpoint Dewpoint Depression Visibility Wind Speed Wind Dir Waves Ship Positions

Baroy

Last reported at 2018-Jun-23 23:30 UTC. Time now 2018-Jun-23 23:45 UTC.
Position N 68°13' E 016°04'.

Length 93 m; draft 4 m.

Type: Passenger vessel. MMSI: 257741000.

Date/timePositionNaut miles runAvg speedWind from/ knotsBaromVisibWave heightAir tempDewpointWater temp
2018-Jun-23 23:30N 68°13' E 016°04'2 4.6
2018-Jun-23 23:00N 68°16' E 016°05'714.4
2018-Jun-23 22:30N 68°23' E 016°01'2 4.5
2018-Jun-23 22:00N 68°25' E 015°60'2 4.3
2018-Jun-23 21:30N 68°23' E 016°02'714.0
2018-Jun-23 21:00N 68°16' E 016°04'3 5.7
2018-Jun-23 20:30N 68°13' E 016°04'3 5.1
2018-Jun-23 20:00N 68°16' E 016°04'714.2
2018-Jun-23 19:30N 68°23' E 016°01'2 4.6
2018-Jun-23 19:00N 68°25' E 015°60'3 5.1
2018-Jun-23 18:29N 68°23' E 016°02'714.0
2018-Jun-23 18:00N 68°16' E 016°04'3 5.2
2018-Jun-23 17:30N 68°14' E 016°04'612.5
2018-Jun-23 16:59N 68°20' E 016°01'510.0
2018-Jun-23 16:27N 68°25' E 015°60'2 4.9
2018-Jun-23 16:00N 68°23' E 016°02'713.9
2018-Jun-23 15:30N 68°16' E 016°04'3 5.6
2018-Jun-23 15:00N 68°13' E 016°04'3 5.2
2018-Jun-23 14:30N 68°16' E 016°04'714.0
2018-Jun-23 14:00N 68°23' E 016°01'2 4.2
2018-Jun-23 13:29N 68°25' E 015°60'510.8
2018-Jun-23 13:00N 68°20' E 016°01'713.4
2018-Jun-23 12:30N 68°13' E 016°04'2 3.8
2018-Jun-23 12:00N 68°15' E 016°05'814.8
2018-Jun-23 11:28N 68°23' E 016°01'2 4.3
2018-Jun-23 10:58N 68°25' E 015°60'3 6.0
2018-Jun-23 10:30N 68°22' E 016°01'815.6
2018-Jun-23 10:00N 68°15' E 016°05'1 2.8
2018-Jun-23 09:30N 68°13' E 016°04'611.8
2018-Jun-23 09:00N 68°19' E 015°60'611.5
2018-Jun-23 08:28N 68°25' E 015°60'1 2.9
2018-Jun-23 08:00N 68°24' E 016°01'715.0
2018-Jun-23 07:30N 68°17' E 016°03'3 6.2
2018-Jun-23 07:00N 68°14' E 016°04'611.7
2018-Jun-23 06:30N 68°19' E 016°00'611.5
2018-Jun-23 05:59N 68°25' E 015°60'0 0.2
2018-Jun-23 05:30N 68°25' E 015°60'611.6
2018-Jun-23 05:00N 68°19' E 016°01'612.1
2018-Jun-23 04:30N 68°13' E 016°04'2 4.8
2018-Jun-23 04:01N 68°16' E 016°04'714.5
2018-Jun-23 03:30N 68°23' E 016°01'2 4.4
2018-Jun-23 03:00N 68°25' E 015°60'0 0.0
2018-Jun-23 02:28N 68°25' E 015°60'0 0.0
2018-Jun-23 01:58N 68°25' E 015°60'0 0.0
2018-Jun-23 01:28N 68°25' E 015°60'0 0.0
2018-Jun-23 00:58N 68°25' E 015°60'0 0.0
2018-Jun-23 00:30N 68°25' E 015°60'611.3
2018-Jun-23 00:00N 68°20' E 016°01'612.7
2018-Jun-22 23:30N 68°13' E 016°04'3 5.3
2018-Jun-22 23:00N 68°16' E 016°04'714.1
2018-Jun-22 22:30N 68°23' E 016°01'2 4.5
2018-Jun-22 21:59N 68°25' E 015°60'2 4.6
2018-Jun-22 21:30N 68°23' E 016°01'713.5
2018-Jun-22 21:00N 68°16' E 016°04'3 6.0
2018-Jun-22 20:30N 68°13' E 016°04'2 4.6
2018-Jun-22 20:00N 68°16' E 016°04'714.4
2018-Jun-22 19:30N 68°23' E 016°01'2 4.4
2018-Jun-22 18:59N 68°25' E 015°60'3 5.8
2018-Jun-22 18:30N 68°22' E 016°01'714.4
2018-Jun-22 18:00N 68°15' E 016°05'2 3.8
2018-Jun-22 17:30N 68°14' E 016°04'612.3
2018-Jun-22 17:00N 68°20' E 016°01'611.0
2018-Jun-22 16:29N 68°25' E 015°60'2 3.8
2018-Jun-22 16:00N 68°23' E 016°01'714.1
2018-Jun-22 15:30N 68°16' E 016°03'3 6.0
2018-Jun-22 15:00N 68°13' E 016°04'3 5.6
2018-Jun-22 14:30N 68°16' E 016°04'714.5
2018-Jun-22 14:00N 68°24' E 016°01'2 3.5
2018-Jun-22 13:30N 68°25' E 015°60'610.8
2018-Jun-22 12:59N 68°20' E 016°01'613.2
2018-Jun-22 12:30N 68°13' E 016°04'3 5.5
2018-Jun-22 12:00N 68°16' E 016°04'714.2
2018-Jun-22 11:30N 68°23' E 016°01'2 4.3
2018-Jun-22 11:00N 68°25' E 015°60'1 3.0
2018-Jun-22 10:30N 68°24' E 016°01'814.8
2018-Jun-22 10:00N 68°16' E 016°03'3 5.7
2018-Jun-22 09:29N 68°13' E 016°04'611.5
2018-Jun-22 09:00N 68°19' E 016°00'612.7
2018-Jun-22 08:30N 68°25' E 015°60'1 2.5
2018-Jun-22 08:00N 68°24' E 016°02'814.9
2018-Jun-22 07:30N 68°17' E 016°03'3 6.4
2018-Jun-22 07:00N 68°13' E 016°04'611.4
2018-Jun-22 06:30N 68°19' E 016°00'612.3
2018-Jun-22 05:59N 68°25' E 015°60'0 0.0
2018-Jun-22 05:30N 68°25' E 015°60'611.2
2018-Jun-22 05:00N 68°20' E 016°01'612.3
2018-Jun-22 04:30N 68°13' E 016°04'2 4.3
2018-Jun-22 04:00N 68°16' E 016°04'714.7
2018-Jun-22 03:30N 68°23' E 016°01'2 4.9
2018-Jun-22 03:00N 68°25' E 015°60'0 0.0
2018-Jun-22 02:29N 68°25' E 015°60'0 0.0
2018-Jun-22 01:59N 68°25' E 015°60'0 0.0
2018-Jun-22 01:30N 68°25' E 015°60'0 0.0
2018-Jun-22 00:59N 68°25' E 015°60'0 0.0
2018-Jun-22 00:30N 68°25' E 015°60'611.6
2018-Jun-22 00:00N 68°19' E 016°01'612.4
2018-Jun-21 23:30N 68°13' E 016°04'3 5.9
2018-Jun-21 23:00N 68°16' E 016°04'713.9
2018-Jun-21 22:30N 68°23' E 016°01'2 4.1
2018-Jun-21 22:00N 68°25' E 015°60'2 3.9
2018-Jun-21 21:30N 68°23' E 016°01'714.3
2018-Jun-21 21:00N 68°16' E 016°03'3 5.9
2018-Jun-21 20:30N 68°13' E 016°04'3 5.6
2018-Jun-21 20:00N 68°16' E 016°04'714.0
2018-Jun-21 19:30N 68°23' E 016°01'2 4.3
2018-Jun-21 19:00N 68°25' E 015°60'2 4.5
2018-Jun-21 18:30N 68°23' E 016°01'714.3
2018-Jun-21 18:00N 68°16' E 016°04'2 4.8
2018-Jun-21 17:30N 68°14' E 016°04'612.5
2018-Jun-21 17:00N 68°20' E 016°01'510.4
2018-Jun-21 16:29N 68°25' E 015°60'2 4.6
2018-Jun-21 16:00N 68°23' E 016°02'714.1
2018-Jun-21 15:30N 68°16' E 016°04'3 5.5
2018-Jun-21 15:00N 68°13' E 016°04'3 5.6
2018-Jun-21 14:30N 68°16' E 016°04'714.1
2018-Jun-21 14:00N 68°23' E 016°01'2 4.3
2018-Jun-21 13:30N 68°25' E 015°60'611.0
2018-Jun-21 13:00N 68°20' E 016°01'612.6
2018-Jun-21 12:30N 68°13' E 016°04'2 4.6
2018-Jun-21 12:00N 68°16' E 016°05'714.8
2018-Jun-21 11:30N 68°23' E 016°01'2 4.3
2018-Jun-21 10:58N 68°25' E 015°60'3 5.4
2018-Jun-21 10:29N 68°23' E 016°02'714.7
2018-Jun-21 10:00N 68°16' E 016°05'2 4.2
2018-Jun-21 09:31N 68°14' E 016°04'612.4
2018-Jun-21 09:00N 68°20' E 016°00'5 9.2
2018-Jun-21 08:24N 68°25' E 015°60'2 4.7
2018-Jun-21 08:00N 68°23' E 016°02'714.1
2018-Jun-21 07:30N 68°16' E 016°04'3 5.6
2018-Jun-21 07:00N 68°14' E 016°04'611.8
2018-Jun-21 06:30N 68°19' E 016°00'611.7
2018-Jun-21 06:00N 68°25' E 015°60'0 0.0
2018-Jun-21 05:30N 68°25' E 015°60'611.3
2018-Jun-21 05:00N 68°20' E 016°01'612.3
2018-Jun-21 04:30N 68°13' E 016°04'3 5.4
2018-Jun-21 04:00N 68°16' E 016°04'714.0
2018-Jun-21 03:30N 68°23' E 016°01'2 4.3
2018-Jun-21 02:58N 68°25' E 015°60'0 0.0
2018-Jun-21 02:28N 68°25' E 015°60'0 0.0
2018-Jun-21 01:58N 68°25' E 015°60'0 0.0
2018-Jun-21 01:28N 68°25' E 015°60'0 0.0
2018-Jun-21 00:58N 68°25' E 015°60'0 0.0
2018-Jun-21 00:30N 68°25' E 015°60'510.9
2018-Jun-21 00:00N 68°20' E 016°01'712.8
2018-Jun-20 23:30N 68°13' E 016°04'3 5.7
2018-Jun-20 23:00N 68°16' E 016°04'713.8
2018-Jun-20 22:30N 68°23' E 016°01'2 4.4
2018-Jun-20 22:00N 68°25' E 015°60'2 4.2
2018-Jun-20 21:31N 68°23' E 016°02'713.9
2018-Jun-20 21:00N 68°16' E 016°04'3 5.5
2018-Jun-20 20:30N 68°13' E 016°04'3 5.3
2018-Jun-20 20:00N 68°16' E 016°04'714.1
2018-Jun-20 19:30N 68°23' E 016°01'2 4.0
2018-Jun-20 18:57N 68°25' E 015°60'2 5.3
2018-Jun-20 18:30N 68°23' E 016°01'714.2
2018-Jun-20 18:00N 68°16' E 016°04'2 4.6
2018-Jun-20 17:30N 68°14' E 016°04'612.3
2018-Jun-20 17:00N 68°20' E 016°01'610.8
2018-Jun-20 16:29N 68°25' E 015°60'2 3.7
2018-Jun-20 16:00N 68°24' E 016°02'814.3
2018-Jun-20 15:29N 68°16' E 016°04'3 5.6
2018-Jun-20 15:00N 68°13' E 016°04'3 5.8
2018-Jun-20 14:30N 68°16' E 016°04'713.8
2018-Jun-20 13:59N 68°23' E 016°01'2 4.1
2018-Jun-20 13:30N 68°25' E 015°60'612.3
2018-Jun-20 13:00N 68°19' E 016°01'611.7
2018-Jun-20 12:30N 68°13' E 016°04'3 6.2
2018-Jun-20 12:00N 68°17' E 016°03'713.2
2018-Jun-20 11:30N 68°23' E 016°01'2 4.4
2018-Jun-20 11:00N 68°25' E 015°60'2 4.8
2018-Jun-20 10:30N 68°23' E 016°02'815.1
2018-Jun-20 10:00N 68°15' E 016°05'2 3.5
2018-Jun-20 09:30N 68°14' E 016°05'713.9
2018-Jun-20 09:00N 68°20' E 015°60'5 9.0
2018-Jun-20 08:27N 68°25' E 015°60'2 5.0
2018-Jun-20 08:00N 68°23' E 016°01'714.2
2018-Jun-20 07:30N 68°16' E 016°04'2 4.5
2018-Jun-20 06:59N 68°14' E 016°05'612.6
2018-Jun-20 06:30N 68°20' E 016°00'611.2
2018-Jun-20 06:00N 68°25' E 015°60'0 0.0
2018-Jun-20 05:30N 68°25' E 015°60'510.7
2018-Jun-20 05:00N 68°20' E 016°01'613.0
2018-Jun-20 04:30N 68°13' E 016°04'3 5.1
2018-Jun-20 04:00N 68°16' E 016°04'713.9
2018-Jun-20 03:30N 68°23' E 016°01'2 4.9
2018-Jun-20 03:00N 68°25' E 015°60'0 0.0
2018-Jun-20 02:28N 68°25' E 015°60'0 0.0
2018-Jun-20 01:58N 68°25' E 015°60'0 0.0
2018-Jun-20 01:28N 68°25' E 015°60'0 0.0
2018-Jun-20 00:58N 68°25' E 015°60'0 0.0
2018-Jun-20 00:29N 68°25' E 015°60'510.7
2018-Jun-20 00:00N 68°20' E 016°01'713.2
2018-Jun-19 23:30N 68°13' E 016°04'3 5.6
2018-Jun-19 23:00N 68°16' E 016°04'713.7
2018-Jun-19 22:28N 68°23' E 016°01'2 4.0
2018-Jun-19 22:00N 68°25' E 015°60'2 3.5
2018-Jun-19 21:30N 68°24' E 016°01'714.2
2018-Jun-19 21:00N 68°17' E 016°03'3 6.3
2018-Jun-19 20:30N 68°13' E 016°04'3 6.1
2018-Jun-19 19:59N 68°17' E 016°03'713.6
2018-Jun-19 19:30N 68°23' E 016°01'2 4.2
2018-Jun-19 18:59N 68°25' E 015°60'2 4.7
2018-Jun-19 18:30N 68°23' E 016°01'714.3
2018-Jun-19 18:00N 68°16' E 016°04'2 4.8
2018-Jun-19 17:30N 68°14' E 016°04'612.4
2018-Jun-19 16:59N 68°20' E 016°01'511.2
2018-Jun-19 16:30N 68°25' E 015°60'2 3.0
2018-Jun-19 16:00N 68°24' E 016°02'714.8
2018-Jun-19 15:30N 68°17' E 016°04'3 6.1
2018-Jun-19 15:00N 68°13' E 016°04'611.1
2018-Jun-19 14:30N 68°19' E 016°01'613.0
2018-Jun-19 14:00N 68°25' E 015°60'0 0.2
2018-Jun-19 13:30N 68°25' E 016°00'713.6
2018-Jun-19 13:00N 68°18' E 016°01'510.3
2018-Jun-19 12:30N 68°13' E 016°04'2 5.0
2018-Jun-19 12:00N 68°16' E 016°04'713.9
2018-Jun-19 11:30N 68°23' E 016°01'2 4.4
2018-Jun-19 10:59N 68°25' E 015°60'2 5.1
2018-Jun-19 10:30N 68°23' E 016°02'714.7
2018-Jun-19 10:00N 68°16' E 016°05'2 3.9
2018-Jun-19 09:30N 68°14' E 016°05'713.2
2018-Jun-19 09:00N 68°20' E 016°00'510.3
2018-Jun-19 08:30N 68°25' E 015°60'2 4.7
2018-Jun-19 08:00N 68°23' E 016°01'714.2
2018-Jun-19 07:30N 68°16' E 016°04'2 4.4
2018-Jun-19 07:00N 68°14' E 016°05'613.0
2018-Jun-19 06:30N 68°20' E 016°00'510.4
2018-Jun-19 06:00N 68°25' E 015°60'0 0.0
2018-Jun-19 05:29N 68°25' E 015°60'511.0
2018-Jun-19 05:00N 68°20' E 016°01'713.3
2018-Jun-19 04:30N 68°13' E 016°04'3 5.6
2018-Jun-19 04:00N 68°16' E 016°04'713.6
2018-Jun-19 03:30N 68°23' E 016°01'2 4.4
2018-Jun-19 03:00N 68°25' E 015°60'0 0.0
2018-Jun-19 02:29N 68°25' E 015°60'0 0.0
2018-Jun-19 01:59N 68°25' E 015°60'0 0.0
2018-Jun-19 01:26N 68°25' E 015°60'0 0.0
2018-Jun-19 00:59N 68°25' E 015°60'0 0.0
2018-Jun-19 00:30N 68°25' E 015°60'611.0
2018-Jun-19 00:00N 68°20' E 016°01'612.8
2018-Jun-18 23:30N 68°13' E 016°04'3 5.9
2018-Jun-18 22:59N 68°17' E 016°03'713.7
2018-Jun-18 22:30N 68°23' E 016°01'2 4.4
2018-Jun-18 22:00N 68°25' E 015°60'2 3.4
2018-Jun-18 21:30N 68°24' E 016°01'714.3
2018-Jun-18 21:00N 68°17' E 016°03'3 6.2
2018-Jun-18 20:30N 68°13' E 016°04'3 6.0
2018-Jun-18 20:00N 68°16' E 016°03'713.5
2018-Jun-18 19:30N 68°23' E 016°01'2 3.9
2018-Jun-18 18:56N 68°25' E 015°60'3 6.1
2018-Jun-18 18:30N 68°23' E 016°01'714.3
2018-Jun-18 18:00N 68°16' E 016°05'2 3.8
2018-Jun-18 17:30N 68°14' E 016°05'612.6
2018-Jun-18 17:00N 68°20' E 016°00'510.3
2018-Jun-18 16:28N 68°25' E 015°60'2 3.4
2018-Jun-18 16:00N 68°24' E 016°01'714.7
2018-Jun-18 15:30N 68°16' E 016°04'3 6.1
2018-Jun-18 15:00N 68°13' E 016°04'3 6.1
2018-Jun-18 14:30N 68°17' E 016°04'713.7
2018-Jun-18 14:00N 68°23' E 016°01'2 4.0
2018-Jun-18 13:30N 68°25' E 015°60'610.6
2018-Jun-18 12:59N 68°20' E 016°01'613.1
2018-Jun-18 12:30N 68°13' E 016°04'3 5.6
2018-Jun-18 12:00N 68°16' E 016°04'713.7
2018-Jun-18 11:30N 68°23' E 016°01'2 4.0
2018-Jun-18 10:56N 68°25' E 015°60'2 4.5
2018-Jun-18 10:30N 68°23' E 016°01'714.1
2018-Jun-18 10:00N 68°16' E 016°04'3 5.5
2018-Jun-18 09:30N 68°14' E 016°04'612.2
2018-Jun-18 09:00N 68°20' E 016°00'611.2
2018-Jun-18 08:30N 68°25' E 015°60'2 3.9
2018-Jun-18 08:00N 68°23' E 016°01'714.6
2018-Jun-18 07:30N 68°16' E 016°04'2 5.1
2018-Jun-18 07:00N 68°14' E 016°04'611.9
2018-Jun-18 06:30N 68°19' E 016°00'611.9
2018-Jun-18 06:00N 68°25' E 015°60'0 0.0
2018-Jun-18 05:28N 68°25' E 015°60'510.7
2018-Jun-18 05:00N 68°20' E 016°01'713.6
2018-Jun-18 04:30N 68°13' E 016°04'3 6.4
2018-Jun-18 04:00N 68°17' E 016°03'713.3
2018-Jun-18 03:30N 68°23' E 016°01'2 4.1
2018-Jun-18 02:59N 68°25' E 015°60'0 0.0
2018-Jun-18 02:30N 68°25' E 015°60'0 0.0
2018-Jun-18 02:00N 68°25' E 015°60'0 0.0
2018-Jun-18 01:30N 68°25' E 015°60'0 0.0
2018-Jun-18 01:00N 68°25' E 015°60'0 0.0
2018-Jun-18 00:30N 68°25' E 015°60'5 9.8
2018-Jun-18 00:00N 68°20' E 016°01'713.8
2018-Jun-17 23:30N 68°13' E 016°04'3 5.3
2018-Jun-17 22:59N 68°16' E 016°04'613.3
2018-Jun-17 22:30N 68°22' E 015°60'3 5.6
2018-Jun-17 22:00N 68°25' E 015°60'3 5.4
2018-Jun-17 21:30N 68°23' E 016°01'612.6
2018-Jun-17 21:00N 68°16' E 016°04'3 5.9
2018-Jun-17 20:30N 68°13' E 016°04'4 7.0
2018-Jun-17 20:00N 68°17' E 016°03'612.3
2018-Jun-17 19:30N 68°23' E 016°01'2 4.3
2018-Jun-17 19:00N 68°25' E 015°60'4 7.0
2018-Jun-17 18:30N 68°22' E 016°01'612.1
2018-Jun-17 18:00N 68°16' E 016°04'2 4.4
2018-Jun-17 17:30N 68°14' E 016°05'612.5
2018-Jun-17 17:00N 68°20' E 016°00'611.4
2018-Jun-17 16:30N 68°25' E 015°60'2 4.9
2018-Jun-17 16:00N 68°23' E 016°02'713.4
2018-Jun-17 15:30N 68°16' E 016°04'3 5.5
2018-Jun-17 15:00N 68°13' E 016°04'3 6.3
2018-Jun-17 14:30N 68°17' E 016°03'612.8
2018-Jun-17 14:00N 68°23' E 016°00'2 4.6
2018-Jun-17 13:29N 68°25' E 015°60'611.4
2018-Jun-17 13:00N 68°20' E 016°01'612.6
2018-Jun-17 12:30N 68°13' E 016°04'2 4.9
2018-Jun-17 12:00N 68°16' E 016°04'714.1
2018-Jun-17 11:29N 68°23' E 016°01'2 4.5
2018-Jun-17 10:59N 68°25' E 015°60'3 5.5
2018-Jun-17 10:30N 68°23' E 016°02'714.7
2018-Jun-17 10:00N 68°15' E 016°05'1 1.9
2018-Jun-17 09:29N 68°15' E 016°05'714.4
2018-Jun-17 09:00N 68°21' E 016°01'4 7.0
2018-Jun-17 08:27N 68°25' E 015°60'2 4.4
2018-Jun-17 08:00N 68°23' E 016°01'714.6
2018-Jun-17 07:30N 68°16' E 016°04'3 5.0
2018-Jun-17 07:00N 68°14' E 016°04'612.6
2018-Jun-17 06:30N 68°20' E 016°00'611.2
2018-Jun-17 06:00N 68°25' E 015°60'0 0.0
2018-Jun-17 05:30N 68°25' E 015°60'510.7
2018-Jun-17 05:00N 68°20' E 016°01'612.9
2018-Jun-17 04:30N 68°13' E 016°04'3 5.7
2018-Jun-17 04:00N 68°16' E 016°04'713.5
2018-Jun-17 03:30N 68°23' E 016°01'2 4.6
2018-Jun-17 02:59N 68°25' E 015°60'0 0.0
2018-Jun-17 02:30N 68°25' E 015°60'0 0.0
2018-Jun-17 02:00N 68°25' E 015°60'0 0.0
2018-Jun-17 01:30N 68°25' E 015°60'0 0.0
2018-Jun-17 01:00N 68°25' E 015°60'0 0.0
2018-Jun-17 00:30N 68°25' E 015°60'510.0
2018-Jun-16 23:59N 68°20' E 016°01'714.0
2018-Jun-16 23:30N 68°13' E 016°04'2 5.0
2018-Jun-16 23:01N 68°16' E 016°04'713.6
2018-Jun-16 22:30N 68°23' E 016°01'2 4.9
2018-Jun-16 22:00N 68°25' E 015°60'3 5.2
2018-Jun-16 21:29N 68°23' E 016°02'613.4
2018-Jun-16 21:00N 68°16' E 016°04'3 5.8
2018-Jun-16 20:30N 68°13' E 016°04'3 5.3
2018-Jun-16 20:00N 68°16' E 016°04'713.5
2018-Jun-16 19:30N 68°23' E 016°01'2 4.8
2018-Jun-16 18:59N 68°25' E 015°60'2 3.7
2018-Jun-16 18:30N 68°24' E 016°02'713.8
2018-Jun-16 18:00N 68°17' E 016°03'3 6.6
2018-Jun-16 17:30N 68°13' E 016°04'0 0.0
2018-Jun-16 17:00N 68°13' E 016°04'0 0.0
2018-Jun-16 16:30N 68°13' E 016°04'0 0.0
2018-Jun-16 16:00N 68°13' E 016°04'0 0.0
2018-Jun-16 15:30N 68°13' E 016°04'0 0.0
2018-Jun-16 15:00N 68°13' E 016°04'0 0.0
2018-Jun-16 14:30N 68°13' E 016°04'0 0.0
2018-Jun-16 14:00N 68°13' E 016°04'0 0.0
2018-Jun-16 13:30N 68°13' E 016°04'0 0.0
2018-Jun-16 13:00N 68°13' E 016°04'0 0.0
2018-Jun-16 12:30N 68°13' E 016°04'0 0.0
2018-Jun-16 12:00N 68°13' E 016°04'0 0.0
2018-Jun-16 11:30N 68°13' E 016°04'0 0.0
2018-Jun-16 11:00N 68°13' E 016°04'0 0.0
2018-Jun-16 10:30N 68°13' E 016°04'0 0.0
2018-Jun-16 10:00N 68°13' E 016°04'0 0.0
2018-Jun-16 09:31N 68°13' E 016°04'0 0.0
2018-Jun-16 09:00N 68°13' E 016°04'0 0.0
2018-Jun-16 08:30N 68°13' E 016°04'0 0.0
2018-Jun-16 08:00N 68°13' E 016°04'0 0.0
2018-Jun-16 07:30N 68°13' E 016°04'2 3.1
2018-Jun-16 07:01N 68°15' E 016°05'610.9
2018-Jun-16 06:30N 68°20' E 015°59'510.1
2018-Jun-16 06:00N 68°25' E 015°60'0 0.2
2018-Jun-16 05:30N 68°25' E 016°00'612.0
2018-Jun-16 04:59N 68°19' E 015°59'612.7
2018-Jun-16 04:31N 68°13' E 016°04'4 7.5
2018-Jun-16 04:00N 68°17' E 015°59'613.0
2018-Jun-16 03:30N 68°23' E 016°01'2 3.8
2018-Jun-16 02:59N 68°25' E 015°60'0 0.0
2018-Jun-16 02:28N 68°25' E 015°60'0 0.0
2018-Jun-16 01:58N 68°25' E 015°60'0 0.0
2018-Jun-16 01:28N 68°25' E 015°60'0 0.0
2018-Jun-16 00:58N 68°25' E 015°60'0 0.0
2018-Jun-16 00:27N 68°25' E 015°60'510.9
2018-Jun-16 00:00N 68°20' E 016°01'713.7
2018-Jun-15 23:30N 68°13' E 016°04'2 4.8
2018-Jun-15 23:00N 68°16' E 016°04'713.5
2018-Jun-15 22:30N 68°22' E 016°01'3 5.6
2018-Jun-15 22:00N 68°25' E 015°60'3 6.0
2018-Jun-15 21:30N 68°22' E 016°01'611.9
2018-Jun-15 21:00N 68°16' E 016°04'3 5.9
2018-Jun-15 20:30N 68°13' E 016°04'4 8.5
2018-Jun-15 20:00N 68°17' E 015°59'612.0
2018-Jun-15 19:29N 68°23' E 016°02'2 3.8
2018-Jun-15 18:58N 68°25' E 015°60'3 5.8
2018-Jun-15 18:30N 68°23' E 016°01'612.6
2018-Jun-15 18:00N 68°16' E 016°04'3 5.6
2018-Jun-15 17:30N 68°14' E 016°04'612.1
2018-Jun-15 17:00N 68°19' E 016°01'611.8
2018-Jun-15 16:30N 68°25' E 015°60'2 3.6
2018-Jun-15 16:00N 68°24' E 016°01'713.8
2018-Jun-15 15:30N 68°16' E 016°04'3 6.2
2018-Jun-15 15:00N 68°13' E 016°04'4 7.4
2018-Jun-15 14:30N 68°17' E 016°02'713.2
2018-Jun-15 14:00N 68°24' E 016°01'1 2.7
2018-Jun-15 13:30N 68°25' E 016°01'714.7
2018-Jun-15 13:00N 68°18' E 016°02'4 8.8
2018-Jun-15 12:30N 68°13' E 016°04'3 6.6
2018-Jun-15 12:00N 68°17' E 016°03'713.1
2018-Jun-15 11:30N 68°23' E 016°01'2 3.9
2018-Jun-15 10:58N 68°25' E 015°60'2 4.3
2018-Jun-15 10:30N 68°23' E 016°02'714.4
2018-Jun-15 10:00N 68°16' E 016°03'3 5.4
2018-Jun-15 09:30N 68°13' E 016°04'0 0.0
2018-Jun-15 09:00N 68°13' E 016°04'0 0.0
2018-Jun-15 08:29N 68°13' E 016°04'0 0.0
2018-Jun-15 08:00N 68°13' E 016°04'0 0.0
2018-Jun-15 07:30N 68°13' E 016°04'0 0.4
2018-Jun-15 07:00N 68°14' E 016°05'713.2
2018-Jun-15 06:30N 68°20' E 016°00'510.7
2018-Jun-15 06:00N 68°25' E 015°60'0 0.0
2018-Jun-15 05:30N 68°25' E 015°60'510.5
2018-Jun-15 05:00N 68°20' E 016°01'713.5
2018-Jun-15 04:30N 68°13' E 016°04'3 6.1
2018-Jun-15 03:59N 68°17' E 016°03'613.2
2018-Jun-15 03:30N 68°23' E 016°01'2 4.3
2018-Jun-15 02:58N 68°25' E 015°60'0 0.0
2018-Jun-15 02:26N 68°25' E 015°60'0 0.0
2018-Jun-15 01:59N 68°25' E 015°60'0 0.0
2018-Jun-15 01:29N 68°25' E 015°60'0 0.0
2018-Jun-15 00:59N 68°25' E 015°60'1 1.8
2018-Jun-15 00:30N 68°25' E 016°01'611.4
2018-Jun-15 00:00N 68°19' E 016°01'611.0
2018-Jun-14 23:30N 68°13' E 016°04'3 6.9
2018-Jun-14 23:00N 68°17' E 016°03'612.2
2018-Jun-14 22:30N 68°23' E 016°01'2 4.7
2018-Jun-14 22:00N 68°25' E 015°60'3 6.6
2018-Jun-14 21:30N 68°22' E 016°01'611.9
2018-Jun-14 21:00N 68°16' E 016°04'3 5.4
2018-Jun-14 20:30N 68°13' E 016°04'4 8.0
2018-Jun-14 20:00N 68°17' E 016°02'611.7
2018-Jun-14 19:30N 68°23' E 016°01'2 3.8
2018-Jun-14 18:57N 68°25' E 015°60'4 8.4
2018-Jun-14 18:30N 68°21' E 016°01'611.5
2018-Jun-14 18:00N 68°16' E 016°04'2 3.8
2018-Jun-14 17:30N 68°14' E 016°05'612.4
2018-Jun-14 17:00N 68°20' E 015°60'510.3
2018-Jun-14 16:28N 68°25' E 015°60'2 3.7
2018-Jun-14 16:00N 68°24' E 016°01'713.9
2018-Jun-14 15:31N 68°17' E 016°03'3 6.5
2018-Jun-14 15:00N 68°13' E 016°04'3 6.6
2018-Jun-14 14:30N 68°17' E 016°03'713.9
2018-Jun-14 14:00N 68°24' E 016°01'2 3.3
2018-Jun-14 13:30N 68°25' E 015°60'713.2
2018-Jun-14 13:00N 68°19' E 016°01'510.7
2018-Jun-14 12:30N 68°13' E 016°04'3 6.4
2018-Jun-14 11:58N 68°17' E 016°03'614.0
2018-Jun-14 11:30N 68°23' E 016°01'2 3.8
2018-Jun-14 10:59N 68°25' E 015°60'4 8.7
2018-Jun-14 10:29N 68°21' E 016°01'714.9
2018-Jun-14 10:00N 68°14' E 016°05'0 0.5
2018-Jun-14 09:30N 68°14' E 016°05'713.3
2018-Jun-14 08:59N 68°20' E 016°00'510.5
2018-Jun-14 08:30N 68°25' E 015°60'2 4.4
2018-Jun-14 08:00N 68°23' E 016°01'714.3
2018-Jun-14 07:30N 68°16' E 016°04'3 5.2
2018-Jun-14 07:00N 68°13' E 016°04'611.6
2018-Jun-14 06:30N 68°19' E 016°01'611.9
2018-Jun-14 06:00N 68°25' E 015°60'0 0.0
2018-Jun-14 05:30N 68°25' E 015°60'510.7
2018-Jun-14 05:00N 68°20' E 016°01'712.9
2018-Jun-14 04:30N 68°13' E 016°04'3 6.0
2018-Jun-14 04:00N 68°16' E 016°04'713.6
2018-Jun-14 03:30N 68°23' E 016°01'2 4.4
2018-Jun-14 03:00N 68°25' E 015°60'0 0.0
2018-Jun-14 02:29N 68°25' E 015°60'0 0.0
2018-Jun-14 01:59N 68°25' E 015°60'0 0.0
2018-Jun-14 01:29N 68°25' E 015°60'0 0.0
2018-Jun-14 00:59N 68°25' E 015°60'0 0.0
2018-Jun-14 00:29N 68°25' E 015°60'5 9.7
2018-Jun-14 00:00N 68°21' E 016°01'  
Track history (hours):
 
Tides and Currents Weather Stations Pressure Air Temp Water Temp Dewpoint Dewpoint Depression Visibility Wind Speed Wind Dir Waves Ship Positions

Baroy

Last reported at 2018-Jun-23 23:30 UTC. Time now 2018-Jun-23 23:45 UTC.
Position N 68°13' E 016°04'.

Length 93 m; draft 4 m.

Type: Passenger vessel. MMSI: 257741000.

Date/timePositionNaut miles runAvg speedWind from/ knotsBaromVisibWave heightAir tempDewpointWater temp
2018-Jun-23 23:30N 68°13' E 016°04'2 4.6
2018-Jun-23 23:00N 68°16' E 016°05'714.4
2018-Jun-23 22:30N 68°23' E 016°01'2 4.5
2018-Jun-23 22:00N 68°25' E 015°60'2 4.3
2018-Jun-23 21:30N 68°23' E 016°02'714.0
2018-Jun-23 21:00N 68°16' E 016°04'3 5.7
2018-Jun-23 20:30N 68°13' E 016°04'3 5.1
2018-Jun-23 20:00N 68°16' E 016°04'714.2
2018-Jun-23 19:30N 68°23' E 016°01'2 4.6
2018-Jun-23 19:00N 68°25' E 015°60'3 5.1
2018-Jun-23 18:29N 68°23' E 016°02'714.0
2018-Jun-23 18:00N 68°16' E 016°04'3 5.2
2018-Jun-23 17:30N 68°14' E 016°04'612.5
2018-Jun-23 16:59N 68°20' E 016°01'510.0
2018-Jun-23 16:27N 68°25' E 015°60'2 4.9
2018-Jun-23 16:00N 68°23' E 016°02'713.9
2018-Jun-23 15:30N 68°16' E 016°04'3 5.6
2018-Jun-23 15:00N 68°13' E 016°04'3 5.2
2018-Jun-23 14:30N 68°16' E 016°04'714.0
2018-Jun-23 14:00N 68°23' E 016°01'2 4.2
2018-Jun-23 13:29N 68°25' E 015°60'510.8
2018-Jun-23 13:00N 68°20' E 016°01'713.4
2018-Jun-23 12:30N 68°13' E 016°04'2 3.8
2018-Jun-23 12:00N 68°15' E 016°05'814.8
2018-Jun-23 11:28N 68°23' E 016°01'2 4.3
2018-Jun-23 10:58N 68°25' E 015°60'3 6.0
2018-Jun-23 10:30N 68°22' E 016°01'815.6
2018-Jun-23 10:00N 68°15' E 016°05'1 2.8
2018-Jun-23 09:30N 68°13' E 016°04'611.8
2018-Jun-23 09:00N 68°19' E 015°60'611.5
2018-Jun-23 08:28N 68°25' E 015°60'1 2.9
2018-Jun-23 08:00N 68°24' E 016°01'715.0
2018-Jun-23 07:30N 68°17' E 016°03'3 6.2
2018-Jun-23 07:00N 68°14' E 016°04'611.7
2018-Jun-23 06:30N 68°19' E 016°00'611.5
2018-Jun-23 05:59N 68°25' E 015°60'0 0.2
2018-Jun-23 05:30N 68°25' E 015°60'611.6
2018-Jun-23 05:00N 68°19' E 016°01'612.1
2018-Jun-23 04:30N 68°13' E 016°04'2 4.8
2018-Jun-23 04:01N 68°16' E 016°04'714.5
2018-Jun-23 03:30N 68°23' E 016°01'2 4.4
2018-Jun-23 03:00N 68°25' E 015°60'0 0.0
2018-Jun-23 02:28N 68°25' E 015°60'0 0.0
2018-Jun-23 01:58N 68°25' E 015°60'0 0.0
2018-Jun-23 01:28N 68°25' E 015°60'0 0.0
2018-Jun-23 00:58N 68°25' E 015°60'0 0.0
2018-Jun-23 00:30N 68°25' E 015°60'611.3
2018-Jun-23 00:00N 68°20' E 016°01'612.7
2018-Jun-22 23:30N 68°13' E 016°04'3 5.3
2018-Jun-22 23:00N 68°16' E 016°04'714.1
2018-Jun-22 22:30N 68°23' E 016°01'2 4.5
2018-Jun-22 21:59N 68°25' E 015°60'2 4.6
2018-Jun-22 21:30N 68°23' E 016°01'713.5
2018-Jun-22 21:00N 68°16' E 016°04'3 6.0
2018-Jun-22 20:30N 68°13' E 016°04'2 4.6
2018-Jun-22 20:00N 68°16' E 016°04'714.4
2018-Jun-22 19:30N 68°23' E 016°01'2 4.4
2018-Jun-22 18:59N 68°25' E 015°60'3 5.8
2018-Jun-22 18:30N 68°22' E 016°01'714.4
2018-Jun-22 18:00N 68°15' E 016°05'2 3.8
2018-Jun-22 17:30N 68°14' E 016°04'612.3
2018-Jun-22 17:00N 68°20' E 016°01'611.0
2018-Jun-22 16:29N 68°25' E 015°60'2 3.8
2018-Jun-22 16:00N 68°23' E 016°01'714.1
2018-Jun-22 15:30N 68°16' E 016°03'3 6.0
2018-Jun-22 15:00N 68°13' E 016°04'3 5.6
2018-Jun-22 14:30N 68°16' E 016°04'714.5
2018-Jun-22 14:00N 68°24' E 016°01'2 3.5
2018-Jun-22 13:30N 68°25' E 015°60'610.8
2018-Jun-22 12:59N 68°20' E 016°01'613.2
2018-Jun-22 12:30N 68°13' E 016°04'3 5.5
2018-Jun-22 12:00N 68°16' E 016°04'714.2
2018-Jun-22 11:30N 68°23' E 016°01'2 4.3
2018-Jun-22 11:00N 68°25' E 015°60'1 3.0
2018-Jun-22 10:30N 68°24' E 016°01'814.8
2018-Jun-22 10:00N 68°16' E 016°03'3 5.7
2018-Jun-22 09:29N 68°13' E 016°04'611.5
2018-Jun-22 09:00N 68°19' E 016°00'612.7
2018-Jun-22 08:30N 68°25' E 015°60'1 2.5
2018-Jun-22 08:00N 68°24' E 016°02'814.9
2018-Jun-22 07:30N 68°17' E 016°03'3 6.4
2018-Jun-22 07:00N 68°13' E 016°04'611.4
2018-Jun-22 06:30N 68°19' E 016°00'612.3
2018-Jun-22 05:59N 68°25' E 015°60'0 0.0
2018-Jun-22 05:30N 68°25' E 015°60'611.2
2018-Jun-22 05:00N 68°20' E 016°01'612.3
2018-Jun-22 04:30N 68°13' E 016°04'2 4.3
2018-Jun-22 04:00N 68°16' E 016°04'714.7
2018-Jun-22 03:30N 68°23' E 016°01'2 4.9
2018-Jun-22 03:00N 68°25' E 015°60'0 0.0
2018-Jun-22 02:29N 68°25' E 015°60'0 0.0
2018-Jun-22 01:59N 68°25' E 015°60'0 0.0
2018-Jun-22 01:30N 68°25' E 015°60'0 0.0
2018-Jun-22 00:59N 68°25' E 015°60'0 0.0
2018-Jun-22 00:30N 68°25' E 015°60'611.6
2018-Jun-22 00:00N 68°19' E 016°01'612.4
2018-Jun-21 23:30N 68°13' E 016°04'3 5.9
2018-Jun-21 23:00N 68°16' E 016°04'713.9
2018-Jun-21 22:30N 68°23' E 016°01'2 4.1
2018-Jun-21 22:00N 68°25' E 015°60'2 3.9
2018-Jun-21 21:30N 68°23' E 016°01'714.3
2018-Jun-21 21:00N 68°16' E 016°03'3 5.9
2018-Jun-21 20:30N 68°13' E 016°04'3 5.6
2018-Jun-21 20:00N 68°16' E 016°04'714.0
2018-Jun-21 19:30N 68°23' E 016°01'2 4.3
2018-Jun-21 19:00N 68°25' E 015°60'2 4.5
2018-Jun-21 18:30N 68°23' E 016°01'714.3
2018-Jun-21 18:00N 68°16' E 016°04'2 4.8
2018-Jun-21 17:30N 68°14' E 016°04'612.5
2018-Jun-21 17:00N 68°20' E 016°01'510.4
2018-Jun-21 16:29N 68°25' E 015°60'2 4.6
2018-Jun-21 16:00N 68°23' E 016°02'714.1
2018-Jun-21 15:30N 68°16' E 016°04'3 5.5
2018-Jun-21 15:00N 68°13' E 016°04'3 5.6
2018-Jun-21 14:30N 68°16' E 016°04'714.1
2018-Jun-21 14:00N 68°23' E 016°01'2 4.3
2018-Jun-21 13:30N 68°25' E 015°60'611.0
2018-Jun-21 13:00N 68°20' E 016°01'612.6
2018-Jun-21 12:30N 68°13' E 016°04'2 4.6
2018-Jun-21 12:00N 68°16' E 016°05'714.8
2018-Jun-21 11:30N 68°23' E 016°01'2 4.3
2018-Jun-21 10:58N 68°25' E 015°60'3 5.4
2018-Jun-21 10:29N 68°23' E 016°02'714.7
2018-Jun-21 10:00N 68°16' E 016°05'2 4.2
2018-Jun-21 09:31N 68°14' E 016°04'612.4
2018-Jun-21 09:00N 68°20' E 016°00'5 9.2
2018-Jun-21 08:24N 68°25' E 015°60'2 4.7
2018-Jun-21 08:00N 68°23' E 016°02'714.1
2018-Jun-21 07:30N 68°16' E 016°04'3 5.6
2018-Jun-21 07:00N 68°14' E 016°04'611.8
2018-Jun-21 06:30N 68°19' E 016°00'611.7
2018-Jun-21 06:00N 68°25' E 015°60'0 0.0
2018-Jun-21 05:30N 68°25' E 015°60'611.3
2018-Jun-21 05:00N 68°20' E 016°01'612.3
2018-Jun-21 04:30N 68°13' E 016°04'3 5.4
2018-Jun-21 04:00N 68°16' E 016°04'714.0
2018-Jun-21 03:30N 68°23' E 016°01'2 4.3
2018-Jun-21 02:58N 68°25' E 015°60'0 0.0
2018-Jun-21 02:28N 68°25' E 015°60'0 0.0
2018-Jun-21 01:58N 68°25' E 015°60'0 0.0
2018-Jun-21 01:28N 68°25' E 015°60'0 0.0
2018-Jun-21 00:58N 68°25' E 015°60'0 0.0
2018-Jun-21 00:30N 68°25' E 015°60'510.9
2018-Jun-21 00:00N 68°20' E 016°01'712.8
2018-Jun-20 23:30N 68°13' E 016°04'3 5.7
2018-Jun-20 23:00N 68°16' E 016°04'713.8
2018-Jun-20 22:30N 68°23' E 016°01'2 4.4
2018-Jun-20 22:00N 68°25' E 015°60'2 4.2
2018-Jun-20 21:31N 68°23' E 016°02'713.9
2018-Jun-20 21:00N 68°16' E 016°04'3 5.5
2018-Jun-20 20:30N 68°13' E 016°04'3 5.3
2018-Jun-20 20:00N 68°16' E 016°04'714.1
2018-Jun-20 19:30N 68°23' E 016°01'2 4.0
2018-Jun-20 18:57N 68°25' E 015°60'2 5.3
2018-Jun-20 18:30N 68°23' E 016°01'714.2
2018-Jun-20 18:00N 68°16' E 016°04'2 4.6
2018-Jun-20 17:30N 68°14' E 016°04'612.3
2018-Jun-20 17:00N 68°20' E 016°01'610.8
2018-Jun-20 16:29N 68°25' E 015°60'2 3.7
2018-Jun-20 16:00N 68°24' E 016°02'814.3
2018-Jun-20 15:29N 68°16' E 016°04'3 5.6
2018-Jun-20 15:00N 68°13' E 016°04'3 5.8
2018-Jun-20 14:30N 68°16' E 016°04'713.8
2018-Jun-20 13:59N 68°23' E 016°01'2 4.1
2018-Jun-20 13:30N 68°25' E 015°60'612.3
2018-Jun-20 13:00N 68°19' E 016°01'611.7
2018-Jun-20 12:30N 68°13' E 016°04'3 6.2
2018-Jun-20 12:00N 68°17' E 016°03'713.2
2018-Jun-20 11:30N 68°23' E 016°01'2 4.4
2018-Jun-20 11:00N 68°25' E 015°60'2 4.8
2018-Jun-20 10:30N 68°23' E 016°02'815.1
2018-Jun-20 10:00N 68°15' E 016°05'2 3.5
2018-Jun-20 09:30N 68°14' E 016°05'713.9
2018-Jun-20 09:00N 68°20' E 015°60'5 9.0
2018-Jun-20 08:27N 68°25' E 015°60'2 5.0
2018-Jun-20 08:00N 68°23' E 016°01'714.2
2018-Jun-20 07:30N 68°16' E 016°04'2 4.5
2018-Jun-20 06:59N 68°14' E 016°05'612.6
2018-Jun-20 06:30N 68°20' E 016°00'611.2
2018-Jun-20 06:00N 68°25' E 015°60'0 0.0
2018-Jun-20 05:30N 68°25' E 015°60'510.7
2018-Jun-20 05:00N 68°20' E 016°01'613.0
2018-Jun-20 04:30N 68°13' E 016°04'3 5.1
2018-Jun-20 04:00N 68°16' E 016°04'713.9
2018-Jun-20 03:30N 68°23' E 016°01'2 4.9
2018-Jun-20 03:00N 68°25' E 015°60'0 0.0
2018-Jun-20 02:28N 68°25' E 015°60'0 0.0
2018-Jun-20 01:58N 68°25' E 015°60'0 0.0
2018-Jun-20 01:28N 68°25' E 015°60'0 0.0
2018-Jun-20 00:58N 68°25' E 015°60'0 0.0
2018-Jun-20 00:29N 68°25' E 015°60'510.7
2018-Jun-20 00:00N 68°20' E 016°01'713.2
2018-Jun-19 23:30N 68°13' E 016°04'3 5.6
2018-Jun-19 23:00N 68°16' E 016°04'713.7
2018-Jun-19 22:28N 68°23' E 016°01'2 4.0
2018-Jun-19 22:00N 68°25' E 015°60'2 3.5
2018-Jun-19 21:30N 68°24' E 016°01'714.2
2018-Jun-19 21:00N 68°17' E 016°03'3 6.3
2018-Jun-19 20:30N 68°13' E 016°04'3 6.1
2018-Jun-19 19:59N 68°17' E 016°03'713.6
2018-Jun-19 19:30N 68°23' E 016°01'2 4.2
2018-Jun-19 18:59N 68°25' E 015°60'2 4.7
2018-Jun-19 18:30N 68°23' E 016°01'714.3
2018-Jun-19 18:00N 68°16' E 016°04'2 4.8
2018-Jun-19 17:30N 68°14' E 016°04'612.4
2018-Jun-19 16:59N 68°20' E 016°01'511.2
2018-Jun-19 16:30N 68°25' E 015°60'2 3.0
2018-Jun-19 16:00N 68°24' E 016°02'714.8
2018-Jun-19 15:30N 68°17' E 016°04'3 6.1
2018-Jun-19 15:00N 68°13' E 016°04'611.1
2018-Jun-19 14:30N 68°19' E 016°01'613.0
2018-Jun-19 14:00N 68°25' E 015°60'0 0.2
2018-Jun-19 13:30N 68°25' E 016°00'713.6
2018-Jun-19 13:00N 68°18' E 016°01'510.3
2018-Jun-19 12:30N 68°13' E 016°04'2 5.0
2018-Jun-19 12:00N 68°16' E 016°04'713.9
2018-Jun-19 11:30N 68°23' E 016°01'2 4.4
2018-Jun-19 10:59N 68°25' E 015°60'2 5.1
2018-Jun-19 10:30N 68°23' E 016°02'714.7
2018-Jun-19 10:00N 68°16' E 016°05'2 3.9
2018-Jun-19 09:30N 68°14' E 016°05'713.2
2018-Jun-19 09:00N 68°20' E 016°00'510.3
2018-Jun-19 08:30N 68°25' E 015°60'2 4.7
2018-Jun-19 08:00N 68°23' E 016°01'714.2
2018-Jun-19 07:30N 68°16' E 016°04'2 4.4
2018-Jun-19 07:00N 68°14' E 016°05'613.0
2018-Jun-19 06:30N 68°20' E 016°00'510.4
2018-Jun-19 06:00N 68°25' E 015°60'0 0.0
2018-Jun-19 05:29N 68°25' E 015°60'511.0
2018-Jun-19 05:00N 68°20' E 016°01'713.3
2018-Jun-19 04:30N 68°13' E 016°04'3 5.6
2018-Jun-19 04:00N 68°16' E 016°04'713.6
2018-Jun-19 03:30N 68°23' E 016°01'2 4.4
2018-Jun-19 03:00N 68°25' E 015°60'0 0.0
2018-Jun-19 02:29N 68°25' E 015°60'0 0.0
2018-Jun-19 01:59N 68°25' E 015°60'0 0.0
2018-Jun-19 01:26N 68°25' E 015°60'0 0.0
2018-Jun-19 00:59N 68°25' E 015°60'0 0.0
2018-Jun-19 00:30N 68°25' E 015°60'611.0
2018-Jun-19 00:00N 68°20' E 016°01'612.8
2018-Jun-18 23:30N 68°13' E 016°04'3 5.9
2018-Jun-18 22:59N 68°17' E 016°03'713.7
2018-Jun-18 22:30N 68°23' E 016°01'2 4.4
2018-Jun-18 22:00N 68°25' E 015°60'2 3.4
2018-Jun-18 21:30N 68°24' E 016°01'714.3
2018-Jun-18 21:00N 68°17' E 016°03'3 6.2
2018-Jun-18 20:30N 68°13' E 016°04'3 6.0
2018-Jun-18 20:00N 68°16' E 016°03'713.5
2018-Jun-18 19:30N 68°23' E 016°01'2 3.9
2018-Jun-18 18:56N 68°25' E 015°60'3 6.1
2018-Jun-18 18:30N 68°23' E 016°01'714.3
2018-Jun-18 18:00N 68°16' E 016°05'2 3.8
2018-Jun-18 17:30N 68°14' E 016°05'612.6
2018-Jun-18 17:00N 68°20' E 016°00'510.3
2018-Jun-18 16:28N 68°25' E 015°60'2 3.4
2018-Jun-18 16:00N 68°24' E 016°01'714.7
2018-Jun-18 15:30N 68°16' E 016°04'3 6.1
2018-Jun-18 15:00N 68°13' E 016°04'3 6.1
2018-Jun-18 14:30N 68°17' E 016°04'713.7
2018-Jun-18 14:00N 68°23' E 016°01'2 4.0
2018-Jun-18 13:30N 68°25' E 015°60'610.6
2018-Jun-18 12:59N 68°20' E 016°01'613.1
2018-Jun-18 12:30N 68°13' E 016°04'3 5.6
2018-Jun-18 12:00N 68°16' E 016°04'713.7
2018-Jun-18 11:30N 68°23' E 016°01'2 4.0
2018-Jun-18 10:56N 68°25' E 015°60'2 4.5
2018-Jun-18 10:30N 68°23' E 016°01'714.1
2018-Jun-18 10:00N 68°16' E 016°04'3 5.5
2018-Jun-18 09:30N 68°14' E 016°04'612.2
2018-Jun-18 09:00N 68°20' E 016°00'611.2
2018-Jun-18 08:30N 68°25' E 015°60'2 3.9
2018-Jun-18 08:00N 68°23' E 016°01'714.6
2018-Jun-18 07:30N 68°16' E 016°04'2 5.1
2018-Jun-18 07:00N 68°14' E 016°04'611.9
2018-Jun-18 06:30N 68°19' E 016°00'611.9
2018-Jun-18 06:00N 68°25' E 015°60'0 0.0
2018-Jun-18 05:28N 68°25' E 015°60'510.7
2018-Jun-18 05:00N 68°20' E 016°01'713.6
2018-Jun-18 04:30N 68°13' E 016°04'3 6.4
2018-Jun-18 04:00N 68°17' E 016°03'713.3
2018-Jun-18 03:30N 68°23' E 016°01'2 4.1
2018-Jun-18 02:59N 68°25' E 015°60'0 0.0
2018-Jun-18 02:30N 68°25' E 015°60'0 0.0
2018-Jun-18 02:00N 68°25' E 015°60'0 0.0
2018-Jun-18 01:30N 68°25' E 015°60'0 0.0
2018-Jun-18 01:00N 68°25' E 015°60'0 0.0
2018-Jun-18 00:30N 68°25' E 015°60'5 9.8
2018-Jun-18 00:00N 68°20' E 016°01'713.8
2018-Jun-17 23:30N 68°13' E 016°04'3 5.3
2018-Jun-17 22:59N 68°16' E 016°04'613.3
2018-Jun-17 22:30N 68°22' E 015°60'3 5.6
2018-Jun-17 22:00N 68°25' E 015°60'3 5.4
2018-Jun-17 21:30N 68°23' E 016°01'612.6
2018-Jun-17 21:00N 68°16' E 016°04'3 5.9
2018-Jun-17 20:30N 68°13' E 016°04'4 7.0
2018-Jun-17 20:00N 68°17' E 016°03'612.3
2018-Jun-17 19:30N 68°23' E 016°01'2 4.3
2018-Jun-17 19:00N 68°25' E 015°60'4 7.0
2018-Jun-17 18:30N 68°22' E 016°01'612.1
2018-Jun-17 18:00N 68°16' E 016°04'2 4.4
2018-Jun-17 17:30N 68°14' E 016°05'612.5
2018-Jun-17 17:00N 68°20' E 016°00'611.4
2018-Jun-17 16:30N 68°25' E 015°60'2 4.9
2018-Jun-17 16:00N 68°23' E 016°02'713.4
2018-Jun-17 15:30N 68°16' E 016°04'3 5.5
2018-Jun-17 15:00N 68°13' E 016°04'3 6.3
2018-Jun-17 14:30N 68°17' E 016°03'612.8
2018-Jun-17 14:00N 68°23' E 016°00'2 4.6
2018-Jun-17 13:29N 68°25' E 015°60'611.4
2018-Jun-17 13:00N 68°20' E 016°01'612.6
2018-Jun-17 12:30N 68°13' E 016°04'2 4.9
2018-Jun-17 12:00N 68°16' E 016°04'714.1
2018-Jun-17 11:29N 68°23' E 016°01'2 4.5
2018-Jun-17 10:59N 68°25' E 015°60'3 5.5
2018-Jun-17 10:30N 68°23' E 016°02'714.7
2018-Jun-17 10:00N 68°15' E 016°05'1 1.9
2018-Jun-17 09:29N 68°15' E 016°05'714.4
2018-Jun-17 09:00N 68°21' E 016°01'4 7.0
2018-Jun-17 08:27N 68°25' E 015°60'2 4.4
2018-Jun-17 08:00N 68°23' E 016°01'714.6
2018-Jun-17 07:30N 68°16' E 016°04'3 5.0
2018-Jun-17 07:00N 68°14' E 016°04'612.6
2018-Jun-17 06:30N 68°20' E 016°00'611.2
2018-Jun-17 06:00N 68°25' E 015°60'0 0.0
2018-Jun-17 05:30N 68°25' E 015°60'510.7
2018-Jun-17 05:00N 68°20' E 016°01'612.9
2018-Jun-17 04:30N 68°13' E 016°04'3 5.7
2018-Jun-17 04:00N 68°16' E 016°04'713.5
2018-Jun-17 03:30N 68°23' E 016°01'2 4.6
2018-Jun-17 02:59N 68°25' E 015°60'0 0.0
2018-Jun-17 02:30N 68°25' E 015°60'0 0.0
2018-Jun-17 02:00N 68°25' E 015°60'0 0.0
2018-Jun-17 01:30N 68°25' E 015°60'0 0.0
2018-Jun-17 01:00N 68°25' E 015°60'0 0.0
2018-Jun-17 00:30N 68°25' E 015°60'510.0
2018-Jun-16 23:59N 68°20' E 016°01'714.0
2018-Jun-16 23:30N 68°13' E 016°04'2 5.0
2018-Jun-16 23:01N 68°16' E 016°04'713.6
2018-Jun-16 22:30N 68°23' E 016°01'2 4.9
2018-Jun-16 22:00N 68°25' E 015°60'3 5.2
2018-Jun-16 21:29N 68°23' E 016°02'613.4
2018-Jun-16 21:00N 68°16' E 016°04'3 5.8
2018-Jun-16 20:30N 68°13' E 016°04'3 5.3
2018-Jun-16 20:00N 68°16' E 016°04'713.5
2018-Jun-16 19:30N 68°23' E 016°01'2 4.8
2018-Jun-16 18:59N 68°25' E 015°60'2 3.7
2018-Jun-16 18:30N 68°24' E 016°02'713.8
2018-Jun-16 18:00N 68°17' E 016°03'3 6.6
2018-Jun-16 17:30N 68°13' E 016°04'0 0.0
2018-Jun-16 17:00N 68°13' E 016°04'0 0.0
2018-Jun-16 16:30N 68°13' E 016°04'0 0.0
2018-Jun-16 16:00N 68°13' E 016°04'0 0.0
2018-Jun-16 15:30N 68°13' E 016°04'0 0.0
2018-Jun-16 15:00N 68°13' E 016°04'0 0.0
2018-Jun-16 14:30N 68°13' E 016°04'0 0.0
2018-Jun-16 14:00N 68°13' E 016°04'0 0.0
2018-Jun-16 13:30N 68°13' E 016°04'0 0.0
2018-Jun-16 13:00N 68°13' E 016°04'0 0.0
2018-Jun-16 12:30N 68°13' E 016°04'0 0.0
2018-Jun-16 12:00N 68°13' E 016°04'0 0.0
2018-Jun-16 11:30N 68°13' E 016°04'0 0.0
2018-Jun-16 11:00N 68°13' E 016°04'0 0.0
2018-Jun-16 10:30N 68°13' E 016°04'0 0.0
2018-Jun-16 10:00N 68°13' E 016°04'0 0.0
2018-Jun-16 09:31N 68°13' E 016°04'0 0.0
2018-Jun-16 09:00N 68°13' E 016°04'0 0.0
2018-Jun-16 08:30N 68°13' E 016°04'0 0.0
2018-Jun-16 08:00N 68°13' E 016°04'0 0.0
2018-Jun-16 07:30N 68°13' E 016°04'2 3.1
2018-Jun-16 07:01N 68°15' E 016°05'610.9
2018-Jun-16 06:30N 68°20' E 015°59'510.1
2018-Jun-16 06:00N 68°25' E 015°60'0 0.2
2018-Jun-16 05:30N 68°25' E 016°00'612.0
2018-Jun-16 04:59N 68°19' E 015°59'612.7
2018-Jun-16 04:31N 68°13' E 016°04'4 7.5
2018-Jun-16 04:00N 68°17' E 015°59'613.0
2018-Jun-16 03:30N 68°23' E 016°01'2 3.8
2018-Jun-16 02:59N 68°25' E 015°60'0 0.0
2018-Jun-16 02:28N 68°25' E 015°60'0 0.0
2018-Jun-16 01:58N 68°25' E 015°60'0 0.0
2018-Jun-16 01:28N 68°25' E 015°60'0 0.0
2018-Jun-16 00:58N 68°25' E 015°60'0 0.0
2018-Jun-16 00:27N 68°25' E 015°60'510.9
2018-Jun-16 00:00N 68°20' E 016°01'713.7
2018-Jun-15 23:30N 68°13' E 016°04'2 4.8
2018-Jun-15 23:00N 68°16' E 016°04'713.5
2018-Jun-15 22:30N 68°22' E 016°01'3 5.6
2018-Jun-15 22:00N 68°25' E 015°60'3 6.0
2018-Jun-15 21:30N 68°22' E 016°01'611.9
2018-Jun-15 21:00N 68°16' E 016°04'3 5.9
2018-Jun-15 20:30N 68°13' E 016°04'4 8.5
2018-Jun-15 20:00N 68°17' E 015°59'612.0
2018-Jun-15 19:29N 68°23' E 016°02'2 3.8
2018-Jun-15 18:58N 68°25' E 015°60'3 5.8
2018-Jun-15 18:30N 68°23' E 016°01'612.6
2018-Jun-15 18:00N 68°16' E 016°04'3 5.6
2018-Jun-15 17:30N 68°14' E 016°04'612.1
2018-Jun-15 17:00N 68°19' E 016°01'611.8
2018-Jun-15 16:30N 68°25' E 015°60'2 3.6
2018-Jun-15 16:00N 68°24' E 016°01'713.8
2018-Jun-15 15:30N 68°16' E 016°04'3 6.2
2018-Jun-15 15:00N 68°13' E 016°04'4 7.4
2018-Jun-15 14:30N 68°17' E 016°02'713.2
2018-Jun-15 14:00N 68°24' E 016°01'1 2.7
2018-Jun-15 13:30N 68°25' E 016°01'714.7
2018-Jun-15 13:00N 68°18' E 016°02'4 8.8
2018-Jun-15 12:30N 68°13' E 016°04'3 6.6
2018-Jun-15 12:00N 68°17' E 016°03'713.1
2018-Jun-15 11:30N 68°23' E 016°01'2 3.9
2018-Jun-15 10:58N 68°25' E 015°60'2 4.3
2018-Jun-15 10:30N 68°23' E 016°02'714.4
2018-Jun-15 10:00N 68°16' E 016°03'3 5.4
2018-Jun-15 09:30N 68°13' E 016°04'0 0.0
2018-Jun-15 09:00N 68°13' E 016°04'0 0.0
2018-Jun-15 08:29N 68°13' E 016°04'0 0.0
2018-Jun-15 08:00N 68°13' E 016°04'0 0.0
2018-Jun-15 07:30N 68°13' E 016°04'0 0.4
2018-Jun-15 07:00N 68°14' E 016°05'713.2
2018-Jun-15 06:30N 68°20' E 016°00'510.7
2018-Jun-15 06:00N 68°25' E 015°60'0 0.0
2018-Jun-15 05:30N 68°25' E 015°60'510.5
2018-Jun-15 05:00N 68°20' E 016°01'713.5
2018-Jun-15 04:30N 68°13' E 016°04'3 6.1
2018-Jun-15 03:59N 68°17' E 016°03'613.2
2018-Jun-15 03:30N 68°23' E 016°01'2 4.3
2018-Jun-15 02:58N 68°25' E 015°60'0 0.0
2018-Jun-15 02:26N 68°25' E 015°60'0 0.0
2018-Jun-15 01:59N 68°25' E 015°60'0 0.0
2018-Jun-15 01:29N 68°25' E 015°60'0 0.0
2018-Jun-15 00:59N 68°25' E 015°60'1 1.8
2018-Jun-15 00:30N 68°25' E 016°01'611.4
2018-Jun-15 00:00N 68°19' E 016°01'611.0
2018-Jun-14 23:30N 68°13' E 016°04'3 6.9
2018-Jun-14 23:00N 68°17' E 016°03'612.2
2018-Jun-14 22:30N 68°23' E 016°01'2 4.7
2018-Jun-14 22:00N 68°25' E 015°60'3 6.6
2018-Jun-14 21:30N 68°22' E 016°01'611.9
2018-Jun-14 21:00N 68°16' E 016°04'3 5.4
2018-Jun-14 20:30N 68°13' E 016°04'4 8.0
2018-Jun-14 20:00N 68°17' E 016°02'611.7
2018-Jun-14 19:30N 68°23' E 016°01'2 3.8
2018-Jun-14 18:57N 68°25' E 015°60'4 8.4
2018-Jun-14 18:30N 68°21' E 016°01'611.5
2018-Jun-14 18:00N 68°16' E 016°04'2 3.8
2018-Jun-14 17:30N 68°14' E 016°05'612.4
2018-Jun-14 17:00N 68°20' E 015°60'510.3
2018-Jun-14 16:28N 68°25' E 015°60'2 3.7
2018-Jun-14 16:00N 68°24' E 016°01'713.9
2018-Jun-14 15:31N 68°17' E 016°03'3 6.5
2018-Jun-14 15:00N 68°13' E 016°04'3 6.6
2018-Jun-14 14:30N 68°17' E 016°03'713.9
2018-Jun-14 14:00N 68°24' E 016°01'2 3.3
2018-Jun-14 13:30N 68°25' E 015°60'713.2
2018-Jun-14 13:00N 68°19' E 016°01'510.7
2018-Jun-14 12:30N 68°13' E 016°04'3 6.4
2018-Jun-14 11:58N 68°17' E 016°03'614.0
2018-Jun-14 11:30N 68°23' E 016°01'2 3.8
2018-Jun-14 10:59N 68°25' E 015°60'4 8.7
2018-Jun-14 10:29N 68°21' E 016°01'714.9
2018-Jun-14 10:00N 68°14' E 016°05'0 0.5
2018-Jun-14 09:30N 68°14' E 016°05'713.3
2018-Jun-14 08:59N 68°20' E 016°00'510.5
2018-Jun-14 08:30N 68°25' E 015°60'2 4.4
2018-Jun-14 08:00N 68°23' E 016°01'714.3
2018-Jun-14 07:30N 68°16' E 016°04'3 5.2
2018-Jun-14 07:00N 68°13' E 016°04'611.6
2018-Jun-14 06:30N 68°19' E 016°01'611.9
2018-Jun-14 06:00N 68°25' E 015°60'0 0.0
2018-Jun-14 05:30N 68°25' E 015°60'510.7
2018-Jun-14 05:00N 68°20' E 016°01'712.9
2018-Jun-14 04:30N 68°13' E 016°04'3 6.0
2018-Jun-14 04:00N 68°16' E 016°04'713.6
2018-Jun-14 03:30N 68°23' E 016°01'2 4.4
2018-Jun-14 03:00N 68°25' E 015°60'0 0.0
2018-Jun-14 02:29N 68°25' E 015°60'0 0.0
2018-Jun-14 01:59N 68°25' E 015°60'0 0.0
2018-Jun-14 01:29N 68°25' E 015°60'0 0.0
2018-Jun-14 00:59N 68°25' E 015°60'0 0.0
2018-Jun-14 00:29N 68°25' E 015°60'5 9.7
2018-Jun-14 00:00N 68°21' E 016°01'  

Dump ship's entire track history